Ridgecrest, CA

10:07 PM PDT on August 30, 2016 (GMT -0700)
Ridgecrest Heights, CA 93555 | | Change Station

Elev 2392 ft 35.60 °N, 117.70 °W | Updated 0 second ago

Clear
Clear
89.1 °F
Feels Like 86 °F
N
9.6
Wind Variable Wind from SW
Gusts 13.0 mph

Today
High -- | Low -- °F
--% Chance of Precip.
Yesterday
High -- | Low -- °F
Precip. -- in
Pressure 29.78 in
Visibility 10.0 miles
Clouds Clear
Heat Index 86 °F
Dew Point 44 °F
Humidity 21%
Rainfall 0.00 in
Snow Depth Not available.
6:21 AM 7:19 PM
Waning Crescent, 1% visible
METAR KNID 310456Z 11004KT 10SM CLR 30/01 A2985 RMK AO2 SLP083 T03000006 $
Pressure 29.78 in
Visibility 10.0 miles
Clouds Clear
Heat Index 86 °F
Dew Point 44 °F
Humidity 21%
Rainfall 0.00 in
Snow Depth Not available.
6:21 AM 7:19 PM
Waning Crescent, 1% visible
METAR KNID 310456Z 11004KT 10SM CLR 30/01 A2985 RMK AO2 SLP083 T03000006 $

10-Day Weather Forecast

Almanac

Astronomy

Aug. 30, 2016 Rise Set
Actual Time
Civil Twilight
Nautical Twilight
Astronomical Twilight
Moon
Length of Visible Light
Length of Day
Tomorrow will be .
, % of the Moon is Illuminated

Today's Extremes

State Highs State Lows

Community

WunderPhotos

Upload Photos

1,936,040 photos uploaded!

WunderBlog® & News

Nearby

Air Quality

  Air Quality AQ Index Pollutant
Not available.

Snow Depth

Station Depth Elevation

Earthquake Activity

City Distance Mag. Time & Date
Minimum magnitude displayed is 2.5.

Coastal Water Temperatures

Place Temperature

Stations

Nearby Weather Stations

Station Location Temp. Windchill Dew Point Humidity Wind Precip. Elev Updated Type
                   

Watches & Warnings

There are currently no watches in effect.